Snyder, Oklahoma
Current Conditions -  °F | °C
As of 2:58 PM on Friday 24 Oct 2014 (Local Time) from KLTS Reporting Station
Clear Clear  
Wind Chill: 90°   Ceiling: Unl
Heat Index: 90°   Visibility: 10mi
Dew Point: 58°   Wind: 10mph
Humidity: 35%   Direction: 200°SSW
Pressure: 30.03"   Gusts: NA
Location:  34.66°N, 98.95°W
Report Text: KLTS 241958Z 20009KT 10SM CLR 32/15 A3003 RMK AO2A SLP157 T03200146 $
Loading
Personal Weather Stations






























Interactive Weather Map
Tropical Storm Tracking
New forecast layout! Learn more

10-Day Weather Forecast

Advertisements
Track Severe Weather on mobile